Time;durP1;ratioP1;P1;durP2;ratioP2;P2;SDS_P1;SDS_P2;PMS_P1;PMS_P2;Temp;Humidity;BMP_temperature;BMP_pressure;BME280_temperature;BME280_humidity;BME280_pressure;Samples;Min_cycle;Max_cycle;Signal;HPM_P1;HPM_P2
2023/09/10 00:00:52;;;;;;;55.75;49.20;;;18.30;99.90;;;;;;5062319;28;20080;-68
2023/09/10 00:03:18;;;;;;;56.35;48.20;;;18.20;99.90;;;;;;5058445;28;20041;-68
2023/09/10 00:05:44;;;;;;;51.22;43.50;;;18.20;99.90;;;;;;5059680;28;20177;-68
2023/09/10 00:08:10;;;;;;;47.28;42.25;;;18.10;99.90;;;;;;5059900;28;20516;-67
2023/09/10 00:10:36;;;;;;;42.22;37.92;;;18.00;99.90;;;;;;5060423;28;20037;-68
2023/09/10 00:13:03;;;;;;;44.08;39.55;;;18.00;99.90;;;;;;5053995;28;20485;-67
2023/09/10 00:15:28;;;;;;;55.90;48.22;;;17.90;99.90;;;;;;5058663;28;20499;-67
2023/09/10 00:17:54;;;;;;;54.67;48.72;;;17.90;99.90;;;;;;5053546;28;20062;-68
2023/09/10 00:20:20;;;;;;;59.83;51.63;;;17.80;99.90;;;;;;5059488;28;20029;-68
2023/09/10 00:22:45;;;;;;;56.72;49.58;;;17.90;99.90;;;;;;5058685;28;20072;-68
2023/09/10 00:25:11;;;;;;;56.15;49.17;;;17.80;99.90;;;;;;5053468;28;20049;-68
2023/09/10 00:27:37;;;;;;;51.63;45.40;;;17.80;99.90;;;;;;5062312;28;20097;-67
2023/09/10 00:30:03;;;;;;;51.80;46.30;;;17.70;99.90;;;;;;5055111;28;20447;-67
2023/09/10 00:32:29;;;;;;;51.67;45.95;;;17.70;99.90;;;;;;5057955;28;20040;-67
2023/09/10 00:34:55;;;;;;;44.45;39.67;;;17.60;99.90;;;;;;5056903;28;20043;-67
2023/09/10 00:37:21;;;;;;;45.80;40.92;;;17.60;99.90;;;;;;5062158;28;20122;-67
2023/09/10 00:39:47;;;;;;;46.38;41.28;;;17.60;99.90;;;;;;5057897;28;20039;-67
2023/09/10 00:42:12;;;;;;;46.83;41.88;;;17.60;99.90;;;;;;5057054;28;20041;-67
2023/09/10 00:44:40;;;;;;;48.63;42.65;;;17.60;99.90;;;;;;5038712;28;20041;-67
2023/09/10 00:47:06;;;;;;;43.85;39.30;;;17.60;99.90;;;;;;5056633;28;20041;-67
2023/09/10 00:49:32;;;;;;;53.85;47.72;;;17.70;99.90;;;;;;5058654;28;20098;-67
2023/09/10 00:52:00;;;;;;;53.35;47.58;;;17.60;99.90;;;;;;5065741;28;20040;-67
2023/09/10 00:54:30;;;;;;;54.53;48.72;;;17.70;99.90;;;;;;5055303;28;20074;-68
2023/09/10 00:56:56;;;;;;;60.67;54.03;;;17.60;99.90;;;;;;5053788;28;21051;-68
2023/09/10 00:59:23;;;;;;;59.25;52.75;;;17.60;99.90;;;;;;5056327;28;20079;-67
2023/09/10 01:01:49;;;;;;;63.92;56.25;;;17.60;99.90;;;;;;5060177;28;20041;-67
2023/09/10 01:04:19;;;;;;;54.65;48.38;;;17.50;99.90;;;;;;5060442;28;20549;-67
2023/09/10 01:06:45;;;;;;;51.30;45.45;;;17.50;99.90;;;;;;5065633;28;20036;-67
2023/09/10 01:09:10;;;;;;;45.17;40.55;;;17.40;99.90;;;;;;5049427;28;20555;-67
2023/09/10 01:12:04;;;;;;;41.30;37.15;;;17.40;99.90;;;;;;5066608;28;20072;-67
2023/09/10 01:14:42;;;;;;;48.63;43.42;;;17.30;99.90;;;;;;5044183;28;20548;-67
2023/09/10 01:17:08;;;;;;;47.47;42.42;;;17.30;99.90;;;;;;5047605;28;20051;-68
2023/09/10 01:19:48;;;;;;;49.17;44.15;;;17.20;99.90;;;;;;5054928;28;20045;-68
2023/09/10 01:22:35;;;;;;;60.70;54.10;;;17.20;99.90;;;;;;5050927;28;20398;-68
2023/09/10 01:25:00;;;;;;;51.67;45.80;;;17.20;99.90;;;;;;5050400;28;20055;-68
2023/09/10 01:27:26;;;;;;;56.22;50.05;;;17.20;99.90;;;;;;5051387;28;20120;-68
2023/09/10 01:29:52;;;;;;;52.65;47.03;;;17.10;99.90;;;;;;5050028;28;20029;-68
2023/09/10 01:32:32;;;;;;;50.72;45.50;;;17.20;99.90;;;;;;5046007;28;20045;-68
2023/09/10 01:35:28;;;;;;;57.70;51.47;;;17.20;99.90;;;;;;5067854;28;20060;-68
2023/09/10 01:38:01;;;;;;;62.78;55.05;;;17.20;99.90;;;;;;5052210;28;20032;-68
2023/09/10 01:40:35;;;;;;;66.47;57.95;;;17.20;99.90;;;;;;5053772;28;20056;-68
2023/09/10 01:43:05;;;;;;;76.15;63.63;;;17.20;99.90;;;;;;5050176;28;20518;-68
2023/09/10 01:45:36;;;;;;;70.90;59.53;;;17.20;99.90;;;;;;5048368;28;20448;-68
2023/09/10 01:48:02;;;;;;;65.82;56.45;;;17.20;99.90;;;;;;5065152;28;20059;-68
2023/09/10 01:50:29;;;;;;;66.20;56.58;;;17.20;99.90;;;;;;5056539;28;20048;-68
2023/09/10 01:52:57;;;;;;;62.72;55.00;;;17.20;99.90;;;;;;5046684;28;20052;-68
2023/09/10 01:55:23;;;;;;;64.78;57.70;;;17.10;99.90;;;;;;5036659;28;20124;-68
2023/09/10 01:57:48;;;;;;;62.65;53.75;;;17.20;99.90;;;;;;5058314;28;20155;-68
2023/09/10 02:00:15;;;;;;;65.55;56.63;;;17.10;99.90;;;;;;5063939;28;20068;-68
2023/09/10 02:02:40;;;;;;;76.03;64.03;;;17.10;99.90;;;;;;5057288;28;20041;-68
2023/09/10 02:05:06;;;;;;;70.05;59.38;;;17.10;99.90;;;;;;5055150;28;20040;-68
2023/09/10 02:07:33;;;;;;;81.00;66.78;;;17.10;99.90;;;;;;5057499;28;20041;-68
2023/09/10 02:09:59;;;;;;;82.88;68.38;;;17.10;99.90;;;;;;5059821;28;20036;-68
2023/09/10 02:12:25;;;;;;;81.82;66.10;;;17.10;99.90;;;;;;5060676;28;20044;-68
2023/09/10 02:14:51;;;;;;;69.22;61.28;;;17.00;99.90;;;;;;5054366;28;20041;-68
2023/09/10 02:17:16;;;;;;;68.40;60.10;;;17.00;99.90;;;;;;5041569;28;20119;-68
2023/09/10 02:19:42;;;;;;;67.43;57.75;;;17.00;99.90;;;;;;5059171;28;20075;-68
2023/09/10 02:22:08;;;;;;;87.70;70.82;;;17.00;99.90;;;;;;5055359;28;20247;-68
2023/09/10 02:24:33;;;;;;;73.10;62.22;;;16.90;99.90;;;;;;5053154;28;20455;-68
2023/09/10 02:26:59;;;;;;;73.93;62.15;;;16.90;99.90;;;;;;5052788;28;20453;-68
2023/09/10 02:29:25;;;;;;;70.70;61.35;;;16.90;99.90;;;;;;5058926;28;20059;-68
2023/09/10 02:31:51;;;;;;;74.13;63.00;;;16.90;99.90;;;;;;5059980;28;20040;-68
2023/09/10 02:34:16;;;;;;;86.68;71.05;;;16.90;99.90;;;;;;5061777;28;20051;-68
2023/09/10 02:36:42;;;;;;;78.43;66.20;;;16.90;99.90;;;;;;5062284;28;20070;-68
2023/09/10 02:39:08;;;;;;;59.95;53.42;;;16.90;99.90;;;;;;5046474;28;20044;-68
2023/09/10 02:41:33;;;;;;;60.97;54.30;;;16.80;99.90;;;;;;5044659;28;20041;-68
2023/09/10 02:43:59;;;;;;;52.83;47.10;;;16.80;99.90;;;;;;5054070;28;20037;-68
2023/09/10 02:46:27;;;;;;;58.60;52.30;;;16.80;99.90;;;;;;5058089;28;20039;-68
2023/09/10 02:48:52;;;;;;;55.83;49.80;;;16.60;99.90;;;;;;5061239;28;20036;-68
2023/09/10 02:51:18;;;;;;;43.63;39.13;;;16.60;99.90;;;;;;5053226;28;20045;-68
2023/09/10 02:53:44;;;;;;;44.42;40.00;;;16.60;99.90;;;;;;5056888;28;20131;-68
2023/09/10 02:56:10;;;;;;;62.72;54.95;;;16.60;99.90;;;;;;5066050;28;20047;-68
2023/09/10 02:58:35;;;;;;;54.42;48.22;;;16.60;99.90;;;;;;5056712;28;20089;-68
2023/09/10 03:01:05;;;;;;;56.08;50.13;;;16.60;99.90;;;;;;5061964;28;20082;-68
2023/09/10 03:03:32;;;;;;;62.35;55.60;;;16.60;99.90;;;;;;5056726;28;20074;-68
2023/09/10 03:05:58;;;;;;;86.63;71.03;;;16.60;99.90;;;;;;5055854;28;20039;-68
2023/09/10 03:08:23;;;;;;;75.53;61.63;;;16.60;99.90;;;;;;5064280;28;20424;-68
2023/09/10 03:10:49;;;;;;;78.90;63.85;;;16.60;99.90;;;;;;5061555;28;20123;-68
2023/09/10 03:13:15;;;;;;;55.97;49.90;;;16.50;99.90;;;;;;5054489;28;20037;-68
2023/09/10 03:15:40;;;;;;;55.03;49.08;;;16.60;99.90;;;;;;5055076;28;20072;-68
2023/09/10 03:18:06;;;;;;;60.17;52.50;;;16.60;99.90;;;;;;5064806;28;20032;-68
2023/09/10 03:20:32;;;;;;;55.97;49.70;;;16.60;99.90;;;;;;5059424;28;20076;-68
2023/09/10 03:22:59;;;;;;;54.53;47.63;;;16.60;99.90;;;;;;5034458;28;20031;-68
2023/09/10 03:25:26;;;;;;;48.97;44.03;;;16.50;99.90;;;;;;5060178;28;20958;-68
2023/09/10 03:27:51;;;;;;;43.50;38.88;;;16.50;99.90;;;;;;5058767;28;20036;-68
2023/09/10 03:30:17;;;;;;;47.55;42.53;;;16.50;99.90;;;;;;5055692;28;20047;-68
2023/09/10 03:32:43;;;;;;;51.90;46.20;;;16.40;99.90;;;;;;5056111;28;20047;-68
2023/09/10 03:35:11;;;;;;;48.78;43.50;;;16.40;99.90;;;;;;5060211;28;20037;-68
2023/09/10 03:37:36;;;;;;;52.97;46.63;;;16.40;99.90;;;;;;5058245;28;20043;-68
2023/09/10 03:40:05;;;;;;;56.72;50.33;;;16.40;99.90;;;;;;5062350;28;20032;-68
2023/09/10 03:42:31;;;;;;;56.25;48.47;;;16.40;99.90;;;;;;5057901;28;20072;-68
2023/09/10 03:44:57;;;;;;;52.15;46.25;;;16.40;99.90;;;;;;5046084;28;20080;-69
2023/09/10 03:47:22;;;;;;;62.63;52.25;;;16.40;99.90;;;;;;5058874;28;20075;-66
2023/09/10 03:49:48;;;;;;;68.70;55.42;;;16.40;99.90;;;;;;5058406;28;20060;-68
2023/09/10 03:52:19;;;;;;;65.93;55.42;;;16.40;99.90;;;;;;5056860;28;20040;-68
2023/09/10 03:54:44;;;;;;;69.13;56.63;;;16.40;99.90;;;;;;5055289;28;20041;-68
2023/09/10 03:57:10;;;;;;;55.83;49.88;;;16.40;99.90;;;;;;5057317;28;20075;-68
2023/09/10 03:59:36;;;;;;;68.07;53.42;;;16.30;99.90;;;;;;5039702;28;20037;-68
2023/09/10 04:02:02;;;;;;;61.22;50.42;;;16.30;99.90;;;;;;5057550;28;20048;-68
2023/09/10 04:04:28;;;;;;;54.80;48.05;;;16.30;99.90;;;;;;5054796;28;20045;-68
2023/09/10 04:06:54;;;;;;;48.35;43.08;;;16.30;99.90;;;;;;5073123;28;20032;-68
2023/09/10 04:09:20;;;;;;;48.25;41.83;;;16.30;99.90;;;;;;5057569;28;20035;-68
2023/09/10 04:11:45;;;;;;;50.63;42.83;;;16.30;99.90;;;;;;5042994;28;20558;-68
2023/09/10 04:14:11;;;;;;;47.70;41.78;;;16.30;99.90;;;;;;5061956;28;20067;-68
2023/09/10 04:16:37;;;;;;;43.13;38.45;;;16.20;99.90;;;;;;5065279;28;20509;-68
2023/09/10 04:19:03;;;;;;;52.38;44.97;;;16.20;99.90;;;;;;5058076;28;20044;-68
2023/09/10 04:21:28;;;;;;;45.13;40.30;;;16.20;99.90;;;;;;5061768;28;20041;-67
2023/09/10 04:23:54;;;;;;;46.83;41.33;;;16.20;99.90;;;;;;5066908;28;20044;-67
2023/09/10 04:26:20;;;;;;;46.83;40.85;;;16.10;99.90;;;;;;5043881;28;21239;-67
2023/09/10 04:28:45;;;;;;;47.97;41.80;;;16.20;99.90;;;;;;5060109;28;20049;-69
2023/09/10 04:31:13;;;;;;;47.08;41.30;;;16.10;99.90;;;;;;5067564;28;20040;-70
2023/09/10 04:33:39;;;;;;;43.70;39.00;;;16.10;99.90;;;;;;5061355;28;20040;-70
2023/09/10 04:36:04;;;;;;;50.25;44.03;;;16.10;99.90;;;;;;5041359;28;20052;-70
2023/09/10 04:38:30;;;;;;;60.13;48.55;;;16.10;99.90;;;;;;5057299;28;20047;-70
2023/09/10 04:40:56;;;;;;;47.67;42.25;;;16.00;99.90;;;;;;5058957;28;20509;-70
2023/09/10 04:43:22;;;;;;;57.55;48.17;;;16.10;99.90;;;;;;5060831;28;20242;-70
2023/09/10 04:45:48;;;;;;;66.65;53.20;;;16.00;99.90;;;;;;5066482;28;20154;-70
2023/09/10 04:48:14;;;;;;;56.60;49.10;;;16.00;99.90;;;;;;5055338;28;20111;-70
2023/09/10 04:50:40;;;;;;;71.00;53.60;;;16.10;99.90;;;;;;5064639;28;20044;-70
2023/09/10 04:53:06;;;;;;;61.28;50.67;;;16.10;99.90;;;;;;5058004;28;20029;-70
2023/09/10 04:55:32;;;;;;;56.15;47.78;;;16.10;99.90;;;;;;5062018;28;20505;-71
2023/09/10 04:57:57;;;;;;;54.30;46.78;;;16.10;99.90;;;;;;5053603;28;20466;-70
2023/09/10 05:00:23;;;;;;;54.15;45.40;;;16.10;99.90;;;;;;5059535;28;20033;-70
2023/09/10 05:02:48;;;;;;;52.83;44.72;;;16.10;99.90;;;;;;5060349;28;20562;-70
2023/09/10 05:05:14;;;;;;;52.60;46.33;;;16.10;99.90;;;;;;5058374;28;20040;-70
2023/09/10 05:07:40;;;;;;;52.22;45.80;;;16.10;99.90;;;;;;5041528;28;20093;-70
2023/09/10 05:10:06;;;;;;;63.40;52.40;;;16.10;99.90;;;;;;5061017;28;20029;-70
2023/09/10 05:12:32;;;;;;;68.40;55.08;;;16.10;99.90;;;;;;5058522;28;20491;-70
2023/09/10 05:14:58;;;;;;;70.63;54.03;;;16.10;99.90;;;;;;5057951;28;20041;-70
2023/09/10 05:17:23;;;;;;;61.60;51.60;;;16.10;99.90;;;;;;5051726;28;20037;-70
2023/09/10 05:19:50;;;;;;;51.33;44.50;;;16.10;99.90;;;;;;5060939;28;20043;-70
2023/09/10 05:22:16;;;;;;;49.35;42.67;;;16.10;99.90;;;;;;5064721;28;20486;-69
2023/09/10 05:24:42;;;;;;;56.25;46.00;;;16.10;99.90;;;;;;5059114;28;20064;-70
2023/09/10 05:27:07;;;;;;;46.05;39.60;;;16.10;99.90;;;;;;5054829;28;20044;-70
2023/09/10 05:29:33;;;;;;;43.22;38.38;;;16.10;99.90;;;;;;5057451;28;20559;-70
2023/09/10 05:31:59;;;;;;;48.85;42.08;;;16.10;99.90;;;;;;5055433;28;20600;-70
2023/09/10 05:34:24;;;;;;;49.75;42.05;;;16.10;99.90;;;;;;5058206;28;20036;-70
2023/09/10 05:36:51;;;;;;;51.05;43.58;;;16.10;99.90;;;;;;5061248;28;20127;-70
2023/09/10 05:39:17;;;;;;;40.80;36.38;;;16.10;99.90;;;;;;5061307;28;20533;-70
2023/09/10 05:41:42;;;;;;;43.60;38.22;;;16.10;99.90;;;;;;5058156;28;20049;-70
2023/09/10 05:44:08;;;;;;;45.90;40.55;;;16.10;99.90;;;;;;5058991;28;20041;-70
2023/09/10 05:46:34;;;;;;;44.45;39.08;;;16.10;99.90;;;;;;5059818;28;20583;-70
2023/09/10 05:48:59;;;;;;;43.15;37.70;;;16.10;99.90;;;;;;5056397;28;20142;-70
2023/09/10 05:51:25;;;;;;;44.83;39.00;;;16.20;99.90;;;;;;5064151;28;20036;-70
2023/09/10 05:53:51;;;;;;;40.33;35.92;;;16.20;99.90;;;;;;5042300;28;20072;-70
2023/09/10 05:56:17;;;;;;;34.83;31.30;;;16.20;99.90;;;;;;5044609;28;20077;-69
2023/09/10 05:58:43;;;;;;;38.08;34.05;;;16.20;99.90;;;;;;5052449;28;20041;-70
2023/09/10 06:01:08;;;;;;;37.55;33.47;;;16.20;99.90;;;;;;5054697;28;20074;-70
2023/09/10 06:03:34;;;;;;;35.47;31.88;;;16.30;99.90;;;;;;5059485;28;20072;-70
2023/09/10 06:06:01;;;;;;;37.25;33.50;;;16.30;99.90;;;;;;5020963;28;21027;-70
2023/09/10 06:08:29;;;;;;;32.85;29.45;;;16.30;99.90;;;;;;5056820;28;20101;-70
2023/09/10 06:10:55;;;;;;;37.10;33.40;;;16.40;99.90;;;;;;5058695;28;20045;-69
2023/09/10 06:13:21;;;;;;;36.65;32.47;;;16.40;99.90;;;;;;5060624;28;20049;-70
2023/09/10 06:15:47;;;;;;;34.45;30.85;;;16.40;99.90;;;;;;5057982;28;20474;-70
2023/09/10 06:18:13;;;;;;;37.05;33.08;;;16.50;99.90;;;;;;5060348;28;20470;-69
2023/09/10 06:20:38;;;;;;;37.67;33.75;;;16.50;99.90;;;;;;5062270;28;20071;-70
2023/09/10 06:23:04;;;;;;;36.58;32.10;;;16.50;99.90;;;;;;5057133;28;20071;-70
2023/09/10 06:25:30;;;;;;;42.28;34.17;;;16.60;99.90;;;;;;5055450;28;20040;-70
2023/09/10 06:27:55;;;;;;;38.90;34.95;;;16.60;99.90;;;;;;5056750;28;20040;-70
2023/09/10 06:30:21;;;;;;;39.53;35.35;;;16.60;99.90;;;;;;5058024;28;20040;-70
2023/09/10 06:32:49;;;;;;;36.35;32.95;;;16.70;99.90;;;;;;5057329;28;20041;-70
2023/09/10 06:35:15;;;;;;;42.40;38.33;;;16.80;99.90;;;;;;5062695;28;20048;-69
2023/09/10 06:37:41;;;;;;;45.03;40.55;;;16.80;99.90;;;;;;5054073;28;20086;-72
2023/09/10 06:40:08;;;;;;;46.33;41.83;;;16.90;99.90;;;;;;5048353;28;20433;-72
2023/09/10 06:42:34;;;;;;;45.78;41.28;;;16.90;99.90;;;;;;5048239;28;20047;-73
2023/09/10 06:44:59;;;;;;;51.63;46.15;;;16.90;99.90;;;;;;5050688;28;20037;-72
2023/09/10 06:47:27;;;;;;;53.05;46.92;;;17.00;99.90;;;;;;5055633;28;20101;-73
2023/09/10 06:49:53;;;;;;;44.67;40.15;;;17.10;99.90;;;;;;5040286;28;20041;-72
2023/09/10 06:52:19;;;;;;;53.67;47.97;;;17.10;99.90;;;;;;5061089;28;20049;-71
2023/09/10 06:54:44;;;;;;;52.40;46.97;;;17.20;99.90;;;;;;5045218;28;20044;-71
2023/09/10 06:57:10;;;;;;;58.40;52.00;;;17.20;99.90;;;;;;5055344;28;20122;-71
2023/09/10 06:59:36;;;;;;;57.65;51.53;;;17.30;99.90;;;;;;5040773;28;20033;-68
2023/09/10 07:02:01;;;;;;;64.32;56.03;;;17.40;99.90;;;;;;5032782;28;20041;-68
2023/09/10 07:04:27;;;;;;;67.35;57.72;;;17.40;99.90;;;;;;5054314;28;20037;-69
2023/09/10 07:06:53;;;;;;;65.00;57.92;;;17.50;99.90;;;;;;5054228;28;20040;-68
2023/09/10 07:09:21;;;;;;;102.78;67.00;;;17.60;99.90;;;;;;5055558;28;20539;-69
2023/09/10 07:11:52;;;;;;;78.13;62.95;;;17.70;99.90;;;;;;5047733;28;20040;-68
2023/09/10 07:14:19;;;;;;;77.07;66.32;;;17.80;99.90;;;;;;5035976;28;20124;-67
2023/09/10 07:16:47;;;;;;;69.70;62.05;;;17.90;99.90;;;;;;5045499;28;20117;-66
2023/09/10 07:19:12;;;;;;;75.55;67.50;;;18.00;99.90;;;;;;5055291;28;20041;-67
2023/09/10 07:21:39;;;;;;;76.60;66.65;;;18.10;99.90;;;;;;5049428;28;20048;-65
2023/09/10 07:24:06;;;;;;;68.80;61.40;;;18.20;99.90;;;;;;5055918;28;20045;-67
2023/09/10 07:26:33;;;;;;;67.45;60.15;;;18.40;99.90;;;;;;5051590;28;20052;-67
2023/09/10 07:28:59;;;;;;;67.78;60.47;;;18.50;99.90;;;;;;5051114;28;20041;-68
2023/09/10 07:31:25;;;;;;;68.63;60.05;;;18.70;99.90;;;;;;5045999;28;20052;-67
2023/09/10 07:33:50;;;;;;;68.10;60.83;;;19.00;99.90;;;;;;5053489;28;20120;-67
2023/09/10 07:36:16;;;;;;;65.32;58.35;;;19.30;99.90;;;;;;5043928;28;20049;-66
2023/09/10 07:38:42;;;;;;;62.20;55.63;;;19.50;99.90;;;;;;5057830;28;20053;-66
2023/09/10 07:41:07;;;;;;;61.70;55.30;;;19.70;99.90;;;;;;5047906;28;20041;-67
2023/09/10 07:43:33;;;;;;;63.20;54.38;;;20.00;99.90;;;;;;5040847;28;20040;-67
2023/09/10 07:45:59;;;;;;;58.05;52.10;;;20.20;99.90;;;;;;5044973;28;20466;-67
2023/09/10 07:48:24;;;;;;;58.40;52.35;;;20.40;99.90;;;;;;5050740;28;20032;-68
2023/09/10 07:50:57;;;;;;;57.45;51.53;;;20.60;99.90;;;;;;5053222;28;20406;-68
2023/09/10 07:53:23;;;;;;;53.42;47.80;;;20.80;99.90;;;;;;5049924;28;20068;-68
2023/09/10 07:55:49;;;;;;;54.58;49.10;;;20.90;99.90;;;;;;5045775;28;20049;-68
2023/09/10 07:58:15;;;;;;;51.20;46.25;;;21.10;99.90;;;;;;5056515;28;20045;-68
2023/09/10 08:00:41;;;;;;;50.83;45.83;;;21.20;99.90;;;;;;5050767;28;20049;-68
2023/09/10 08:03:07;;;;;;;50.70;45.47;;;21.40;99.90;;;;;;5055368;28;20068;-67
2023/09/10 08:05:34;;;;;;;48.83;43.78;;;21.60;99.90;;;;;;5027721;28;20036;-68
2023/09/10 08:08:03;;;;;;;46.45;41.75;;;21.70;99.90;;;;;;5041797;28;20037;-70
2023/09/10 08:10:30;;;;;;;45.63;41.03;;;21.80;99.90;;;;;;5051782;28;20055;-71
2023/09/10 08:12:56;;;;;;;42.40;38.13;;;22.00;99.90;;;;;;5016562;28;20049;-70
2023/09/10 08:15:21;;;;;;;43.50;36.40;;;22.10;99.90;;;;;;5051368;28;20063;-70
2023/09/10 08:17:53;;;;;;;38.70;34.65;;;22.20;99.90;;;;;;5048371;28;20041;-70
2023/09/10 08:20:19;;;;;;;37.85;34.05;;;22.30;99.90;;;;;;5050351;28;20421;-70
2023/09/10 08:22:44;;;;;;;35.05;31.58;;;22.50;99.90;;;;;;5050193;28;20040;-69
2023/09/10 08:25:10;;;;;;;33.88;30.52;;;22.70;99.90;;;;;;5058552;28;20111;-70
2023/09/10 08:27:36;;;;;;;33.38;29.98;;;22.70;99.90;;;;;;5047940;28;20056;-69
2023/09/10 08:30:05;;;;;;;32.92;29.73;;;22.80;99.90;;;;;;5050604;28;20508;-70
2023/09/10 08:32:35;;;;;;;31.40;28.30;;;22.90;99.90;;;;;;5049136;28;20044;-69
2023/09/10 08:35:01;;;;;;;31.35;28.27;;;23.00;99.90;;;;;;5039510;28;20084;-69
2023/09/10 08:37:27;;;;;;;32.70;26.65;;;23.20;99.90;;;;;;5050745;28;20051;-69
2023/09/10 08:39:53;;;;;;;29.38;26.40;;;23.30;99.90;;;;;;5048706;28;20037;-70
2023/09/10 08:42:37;;;;;;;28.50;25.33;;;23.30;99.90;;;;;;5051767;28;20539;-69
2023/09/10 08:45:07;;;;;;;28.15;25.30;;;23.40;99.90;;;;;;5048178;28;20041;-70
2023/09/10 08:47:43;;;;;;;26.25;23.52;;;23.50;99.90;;;;;;5050317;28;20460;-70
2023/09/10 08:50:13;;;;;;;26.13;23.60;;;23.50;99.90;;;;;;5057601;28;20107;-69
2023/09/10 08:52:44;;;;;;;26.65;23.98;;;23.60;99.90;;;;;;5048845;28;20037;-70
2023/09/10 08:55:12;;;;;;;26.52;23.90;;;23.70;99.90;;;;;;5047482;28;20044;-70
2023/09/10 08:57:40;;;;;;;26.33;23.73;;;23.70;99.90;;;;;;5049750;28;20507;-70
2023/09/10 09:00:13;;;;;;;25.45;22.45;;;23.90;99.90;;;;;;5061396;28;20068;-70
2023/09/10 09:02:40;;;;;;;23.52;21.02;;;23.90;99.90;;;;;;5052714;28;20044;-70
2023/09/10 09:05:06;;;;;;;21.40;19.17;;;24.00;99.90;;;;;;5040760;28;20034;-70
2023/09/10 09:07:46;;;;;;;18.15;16.42;;;24.10;99.90;;;;;;5056317;28;20098;-70
2023/09/10 09:10:21;;;;;;;19.27;15.65;;;24.20;99.90;;;;;;5058662;28;20041;-71
2023/09/10 09:12:52;;;;;;;22.55;20.20;;;24.30;99.90;;;;;;5058670;28;20508;-71
2023/09/10 09:15:19;;;;;;;17.52;15.68;;;24.30;99.90;;;;;;5057950;28;20061;-71
2023/09/10 09:17:46;;;;;;;18.35;16.45;;;24.40;99.90;;;;;;5052537;28;20094;-70
2023/09/10 09:20:12;;;;;;;16.58;14.85;;;24.50;99.90;;;;;;5055053;28;20040;-70
2023/09/10 09:22:45;;;;;;;19.17;17.27;;;24.60;99.90;;;;;;5055105;28;20533;-71
2023/09/10 09:25:11;;;;;;;23.02;18.10;;;24.60;99.90;;;;;;5061023;28;20098;-71
2023/09/10 09:27:37;;;;;;;21.35;17.00;;;24.70;99.90;;;;;;5053245;28;20119;-71
2023/09/10 09:30:06;;;;;;;17.65;15.40;;;24.80;99.90;;;;;;5051725;28;20090;-71
2023/09/10 09:32:37;;;;;;;17.20;15.40;;;24.90;99.90;;;;;;5053860;28;20055;-71
2023/09/10 09:35:04;;;;;;;16.70;14.67;;;25.00;99.90;;;;;;5044615;28;20517;-71
2023/09/10 09:37:33;;;;;;;17.13;15.32;;;25.20;99.90;;;;;;5051683;28;20039;-71
2023/09/10 09:40:11;;;;;;;17.15;13.88;;;25.30;99.90;;;;;;5051531;28;20040;-71
2023/09/10 09:42:38;;;;;;;15.65;14.05;;;25.30;99.90;;;;;;5047686;28;20175;-71
2023/09/10 09:45:04;;;;;;;17.25;13.82;;;25.50;99.90;;;;;;5053955;28;20036;-71
2023/09/10 09:47:31;;;;;;;15.52;13.95;;;25.50;99.90;;;;;;5053511;28;20363;-71
2023/09/10 09:49:58;;;;;;;17.17;12.95;;;25.60;99.90;;;;;;5052365;28;20557;-71
2023/09/10 09:52:24;;;;;;;15.85;14.25;;;25.70;99.90;;;;;;5036594;28;20052;-71
2023/09/10 09:54:50;;;;;;;17.30;14.23;;;25.70;99.90;;;;;;5053437;28;20043;-72
2023/09/10 09:57:19;;;;;;;15.18;13.60;;;25.80;99.90;;;;;;5048182;28;20049;-71
2023/09/10 09:59:45;;;;;;;17.27;13.77;;;25.90;99.90;;;;;;5052477;28;20049;-71
2023/09/10 10:02:17;;;;;;;15.15;13.55;;;26.00;99.90;;;;;;5057213;28;20041;-72
2023/09/10 10:04:44;;;;;;;16.00;14.20;;;26.10;99.90;;;;;;5052391;28;20041;-73
2023/09/10 10:07:12;;;;;;;16.55;13.18;;;26.20;99.90;;;;;;5061627;28;20040;-75
2023/09/10 10:09:40;;;;;;;14.20;12.75;;;26.30;99.90;;;;;;5045797;28;20044;-74
2023/09/10 10:12:07;;;;;;;21.23;13.32;;;26.30;99.90;;;;;;5056919;28;20051;-79
2023/09/10 10:14:34;;;;;;;15.20;13.60;;;26.40;99.90;;;;;;5056401;28;20035;-73
2023/09/10 10:17:03;;;;;;;17.88;13.98;;;26.50;99.90;;;;;;5056803;28;20051;-72
2023/09/10 10:19:31;;;;;;;16.75;14.80;;;26.50;99.90;;;;;;5056007;28;20072;-71
2023/09/10 10:21:57;;;;;;;16.63;12.95;;;26.60;99.90;;;;;;5044190;28;20049;-74
2023/09/10 10:24:23;;;;;;;17.70;13.55;;;26.70;99.90;;;;;;5051657;28;20059;-72
2023/09/10 10:26:54;;;;;;;16.83;15.13;;;26.80;99.90;;;;;;5063046;28;20063;-72
2023/09/10 10:29:22;;;;;;;15.00;13.45;;;26.90;99.90;;;;;;5054561;28;20056;-72
2023/09/10 10:31:55;;;;;;;15.68;13.35;;;27.00;99.90;;;;;;5058071;28;20044;-72
2023/09/10 10:34:29;;;;;;;16.13;13.80;;;27.00;99.90;;;;;;5055262;28;20070;-72
2023/09/10 10:37:13;;;;;;;16.08;12.75;;;27.10;99.90;;;;;;5049173;28;20444;-72
2023/09/10 10:39:51;;;;;;;20.15;13.35;;;27.30;99.90;;;;;;5056678;28;20055;-74
2023/09/10 10:42:37;;;;;;;18.77;14.80;;;27.30;99.90;;;;;;5055562;28;20916;-74
2023/09/10 10:45:06;;;;;;;18.90;14.75;;;27.40;99.90;;;;;;5053621;28;20025;-72
2023/09/10 10:47:40;;;;;;;15.52;13.63;;;27.50;99.90;;;;;;5043017;28;20043;-74
2023/09/10 10:50:12;;;;;;;20.20;14.35;;;27.50;99.90;;;;;;5050059;28;20033;-78
2023/09/10 10:52:57;;;;;;;16.75;13.93;;;27.60;99.90;;;;;;5037975;28;20095;-77
2023/09/10 10:55:24;;;;;;;19.45;14.07;;;27.60;99.90;;;;;;5073554;28;20041;-74
2023/09/10 10:57:51;;;;;;;17.05;13.25;;;27.60;99.90;;;;;;5057493;28;20489;-77
2023/09/10 11:00:17;;;;;;;15.98;12.35;;;27.70;99.90;;;;;;5057031;28;20051;-78
2023/09/10 11:02:45;;;;;;;15.45;12.80;;;27.70;99.90;;;;;;5056122;28;20040;-79
2023/09/10 11:05:10;;;;;;;17.17;13.65;;;27.70;99.90;;;;;;5057798;28;20481;-77
2023/09/10 11:07:36;;;;;;;16.15;13.43;;;27.80;99.90;;;;;;5057278;28;20079;-78
2023/09/10 11:10:27;;;;;;;19.95;12.73;;;27.80;99.90;;;;;;5062430;28;20051;-78
2023/09/10 11:13:10;;;;;;;15.30;12.50;;;27.80;99.90;;;;;;5053328;28;20044;-77
2023/09/10 11:15:56;;;;;;;17.33;12.38;;;27.80;99.90;;;;;;5057273;28;20041;-78
2023/09/10 11:18:37;;;;;;;14.38;12.85;;;27.90;99.90;;;;;;5064012;28;20045;-77
2023/09/10 11:21:05;;;;;;;12.30;10.88;;;28.00;99.90;;;;;;5051524;28;20045;-77
2023/09/10 11:23:33;;;;;;;18.85;11.20;;;28.20;99.90;;;;;;5056617;28;20040;-76
2023/09/10 11:26:25;;;;;;;15.30;11.15;;;28.20;99.90;;;;;;5057628;28;20048;-78
2023/09/10 11:28:54;;;;;;;12.75;11.40;;;28.20;99.90;;;;;;5081054;28;20044;-77
2023/09/10 11:31:45;;;;;;;13.35;11.95;;;28.20;99.90;;;;;;5039871;28;20040;-77
2023/09/10 11:34:17;;;;;;;13.93;11.02;;;28.40;99.90;;;;;;5056802;28;21197;-77
2023/09/10 11:36:55;;;;;;;15.45;10.25;;;28.40;99.90;;;;;;5053279;28;20119;-76
2023/09/10 11:39:22;;;;;;;16.35;11.07;;;28.40;99.90;;;;;;5058004;28;20132;-75
2023/09/10 11:41:52;;;;;;;11.95;9.35;;;28.50;99.90;;;;;;5055662;28;20505;-76
2023/09/10 11:44:18;;;;;;;13.63;10.52;;;28.50;99.90;;;;;;5051385;28;20032;-75
2023/09/10 11:46:45;;;;;;;11.57;9.43;;;28.60;99.90;;;;;;5054894;28;20429;-74
2023/09/10 11:49:12;;;;;;;12.10;10.05;;;28.60;99.90;;;;;;5052357;28;21904;-77
2023/09/10 11:51:42;;;;;;;17.27;9.77;;;28.70;99.90;;;;;;5055679;28;20049;-75
2023/09/10 11:54:08;;;;;;;12.15;9.88;;;28.70;99.90;;;;;;5056201;28;20103;-78
2023/09/10 11:56:34;;;;;;;12.63;10.07;;;28.80;99.90;;;;;;5057570;28;20069;-78
2023/09/10 11:59:01;;;;;;;10.90;8.82;;;28.80;99.90;;;;;;5051487;28;20040;-74
2023/09/10 12:01:26;;;;;;;16.40;8.73;;;28.80;99.90;;;;;;5045850;28;20041;-75
2023/09/10 12:03:52;;;;;;;12.88;9.57;;;28.90;99.90;;;;;;5056647;28;20037;-75
2023/09/10 12:06:18;;;;;;;17.23;9.68;;;28.90;99.90;;;;;;5046308;28;21655;-73
2023/09/10 12:08:44;;;;;;;13.95;8.95;;;29.00;99.90;;;;;;5054244;28;20060;-77
2023/09/10 12:11:14;;;;;;;20.98;8.82;;;29.10;99.90;;;;;;5059789;28;20055;-75
2023/09/10 12:13:40;;;;;;;10.95;8.00;;;29.10;99.90;;;;;;5058266;28;20527;-77
2023/09/10 12:16:07;;;;;;;15.90;9.00;;;29.20;99.90;;;;;;5055683;28;20120;-73
2023/09/10 12:18:33;;;;;;;13.55;9.07;;;29.20;99.90;;;;;;5058033;28;20400;-76
2023/09/10 12:20:59;;;;;;;13.48;9.07;;;29.30;99.90;;;;;;5048965;28;20061;-75
2023/09/10 12:23:26;;;;;;;12.70;8.48;;;29.30;99.90;;;;;;5050920;28;20048;-75
2023/09/10 12:25:56;;;;;;;12.43;9.05;;;29.30;99.90;;;;;;5056594;28;20418;-75
2023/09/10 12:28:22;;;;;;;14.52;8.63;;;29.40;99.90;;;;;;5051095;28;20512;-76
2023/09/10 12:30:48;;;;;;;13.15;8.25;;;29.50;99.90;;;;;;5054299;28;20059;-76